createdAt,value
2017-08-24T00:00:49.082Z,1006.48
2017-08-24T00:01:43.112Z,1006.48
2017-08-24T00:02:43.091Z,1006.45
2017-08-24T00:03:38.032Z,1006.47
2017-08-24T00:04:33.134Z,1006.42
2017-08-24T00:05:33.173Z,1006.44
2017-08-24T00:06:28.034Z,1006.42
2017-08-24T00:07:23.231Z,1006.42
2017-08-24T00:08:24.457Z,1006.46
2017-08-24T00:09:24.305Z,1006.43
2017-08-24T00:10:24.411Z,1006.44
2017-08-24T00:11:19.377Z,1006.43
2017-08-24T00:12:13.420Z,1006.41
2017-08-24T00:13:13.547Z,1006.38
2017-08-24T00:14:08.547Z,1006.39
2017-08-24T00:15:08.657Z,1006.40
2017-08-24T00:16:02.684Z,1006.42
2017-08-24T00:17:02.716Z,1006.43
2017-08-24T00:17:57.707Z,1006.42
2017-08-24T00:18:52.878Z,1006.40
2017-08-24T00:19:52.928Z,1006.38
2017-08-24T00:20:47.807Z,1006.43
2017-08-24T00:21:42.800Z,1006.46
2017-08-24T00:22:43.609Z,1006.48
2017-08-24T00:23:43.626Z,1006.47
2017-08-24T00:24:38.690Z,1006.45
2017-08-24T00:25:39.113Z,1006.47
2017-08-24T00:26:33.045Z,1006.50
2017-08-24T00:27:28.164Z,1006.48
2017-08-24T00:28:29.059Z,1006.53
2017-08-24T00:29:23.206Z,1006.51
2017-08-24T00:30:23.161Z,1006.47
2017-08-24T00:31:12.338Z,1006.47
2017-08-24T00:32:00.337Z,1006.50
2017-08-24T00:32:49.365Z,1006.49
2017-08-24T00:33:37.440Z,1006.45
2017-08-24T00:34:26.514Z,1006.47
2017-08-24T00:35:21.572Z,1006.50
2017-08-24T00:36:15.572Z,1006.49
2017-08-24T00:37:03.544Z,1006.50
2017-08-24T00:37:51.647Z,1006.47
2017-08-24T00:38:39.664Z,1006.53
2017-08-24T00:39:40.720Z,1006.52
2017-08-24T00:40:40.753Z,1006.56
2017-08-24T00:41:40.806Z,1006.59
2017-08-24T00:42:34.766Z,1006.57
2017-08-24T00:43:35.827Z,1006.50
2017-08-24T00:44:30.924Z,1006.51
2017-08-24T00:45:30.828Z,1006.51
2017-08-24T00:46:30.962Z,1006.51
2017-08-24T00:47:24.962Z,1006.46
2017-08-24T00:48:18.911Z,1006.50
2017-08-24T00:49:13.080Z,1006.52
2017-08-24T00:50:08.056Z,1006.50
2017-08-24T00:50:56.206Z,1006.45
2017-08-24T00:51:45.200Z,1006.49
2017-08-24T00:52:40.178Z,1006.52
2017-08-24T00:53:28.325Z,1006.52
2017-08-24T00:54:22.274Z,1006.47
2017-08-24T00:55:16.365Z,1006.46
2017-08-24T00:56:17.411Z,1006.50
2017-08-24T00:57:11.440Z,1006.49
2017-08-24T00:58:11.536Z,1006.53
2017-08-24T00:59:05.570Z,1006.49
2017-08-24T00:59:59.569Z,1006.44
2017-08-24T01:00:47.635Z,1006.41
2017-08-24T01:01:36.665Z,1006.42
2017-08-24T01:02:31.725Z,1006.42
2017-08-24T01:03:19.763Z,1006.44
2017-08-24T01:04:13.827Z,1006.45
2017-08-24T01:05:07.765Z,1006.47
2017-08-24T01:06:01.890Z,1006.45
2017-08-24T01:06:56.006Z,1006.44
2017-08-24T01:07:49.904Z,1006.41
2017-08-24T01:08:51.022Z,1006.43
2017-08-24T01:09:51.014Z,1006.45
2017-08-24T01:10:51.199Z,1006.46
2017-08-24T01:11:39.196Z,1006.52
2017-08-24T01:12:33.181Z,1006.46
2017-08-24T01:13:27.226Z,1006.50
2017-08-24T01:14:27.322Z,1006.48
2017-08-24T01:15:22.319Z,1006.50
2017-08-24T01:16:11.382Z,1006.53
2017-08-24T01:17:06.440Z,1006.52
2017-08-24T01:17:55.402Z,1006.49
2017-08-24T01:18:43.457Z,1006.49
2017-08-24T01:19:37.439Z,1006.48
2017-08-24T01:20:37.683Z,1006.47
2017-08-24T01:21:32.703Z,1006.53
2017-08-24T01:22:32.613Z,1006.51
2017-08-24T01:23:26.603Z,1006.53
2017-08-24T01:24:21.640Z,1006.58
2017-08-24T01:25:15.777Z,1006.48
2017-08-24T01:26:16.808Z,1006.53
2017-08-24T01:27:17.793Z,1006.51
2017-08-24T01:28:11.802Z,1006.53
2017-08-24T01:29:05.854Z,1006.57
2017-08-24T01:30:00.968Z,1006.64
2017-08-24T01:30:54.973Z,1006.69
2017-08-24T01:31:44.081Z,1006.75
2017-08-24T01:32:38.071Z,1006.75
2017-08-24T01:33:38.094Z,1006.80
2017-08-24T01:34:27.114Z,1006.73
2017-08-24T01:35:16.200Z,1006.74
2017-08-24T01:36:10.206Z,1006.71
2017-08-24T01:37:05.219Z,1006.68
2017-08-24T01:37:54.418Z,1006.71
2017-08-24T01:38:48.413Z,1006.69
2017-08-24T01:39:42.335Z,1006.72
2017-08-24T01:40:35.923Z,1006.69
2017-08-24T01:41:25.558Z,1006.69
2017-08-24T01:42:19.566Z,1006.74
2017-08-24T01:43:13.587Z,1006.72
2017-08-24T01:44:07.607Z,1006.67
2017-08-24T01:45:08.570Z,1006.62
2017-08-24T01:46:02.755Z,1006.62
2017-08-24T01:46:56.690Z,1006.59
2017-08-24T01:47:51.744Z,1006.57
2017-08-24T01:48:40.871Z,1006.58
2017-08-24T01:49:28.825Z,1006.57
2017-08-24T01:50:28.994Z,1006.58
2017-08-24T01:51:17.042Z,1006.62
2017-08-24T01:52:12.038Z,1006.71
2017-08-24T01:53:06.997Z,1006.66
2017-08-24T01:54:01.074Z,1006.70
2017-08-24T01:54:50.084Z,1006.66
2017-08-24T01:55:39.131Z,1006.69
2017-08-24T01:56:33.174Z,1006.69
2017-08-24T01:57:21.167Z,1006.73
2017-08-24T01:58:15.209Z,1006.71
2017-08-24T01:59:15.333Z,1006.74
2017-08-24T02:00:03.285Z,1006.72
2017-08-24T02:00:58.320Z,1006.72
2017-08-24T02:01:47.419Z,1006.78
2017-08-24T02:02:47.500Z,1006.78
2017-08-24T02:03:35.536Z,1006.79
2017-08-24T02:04:29.629Z,1006.79
2017-08-24T02:05:23.552Z,1006.88
2017-08-24T02:06:23.604Z,1006.84
2017-08-24T02:07:23.655Z,1006.83
2017-08-24T02:08:18.749Z,1006.87
2017-08-24T02:09:12.669Z,1006.81
2017-08-24T02:10:12.831Z,1006.82
2017-08-24T02:11:00.844Z,1006.81
2017-08-24T02:11:48.858Z,1006.81
2017-08-24T02:12:36.879Z,1006.85
2017-08-24T02:13:24.932Z,1006.78
2017-08-24T02:14:18.885Z,1006.82
2017-08-24T02:15:12.965Z,1006.83
2017-08-24T02:16:08.016Z,1006.84
2017-08-24T02:17:02.070Z,1006.84
2017-08-24T02:17:51.059Z,1006.85
2017-08-24T02:18:46.207Z,1006.87
2017-08-24T02:19:41.248Z,1006.80
2017-08-24T02:20:41.234Z,1006.84
2017-08-24T02:21:41.178Z,1006.82
2017-08-24T02:22:35.237Z,1006.84
2017-08-24T02:23:35.323Z,1006.83
2017-08-24T02:24:29.378Z,1006.80
2017-08-24T02:25:30.403Z,1006.79
2017-08-24T02:26:25.163Z,1006.81
2017-08-24T02:27:19.470Z,1006.82
2017-08-24T02:28:13.277Z,1006.81
2017-08-24T02:29:02.275Z,1006.81
2017-08-24T02:29:56.353Z,1006.91
2017-08-24T02:30:51.736Z,1006.90
2017-08-24T02:31:39.797Z,1006.91
2017-08-24T02:32:28.728Z,1006.92
2017-08-24T02:33:17.479Z,1006.97
2017-08-24T02:34:05.823Z,1006.95
2017-08-24T02:34:59.969Z,1006.95
2017-08-24T02:35:54.067Z,1006.96
2017-08-24T02:36:47.716Z,1006.93
2017-08-24T02:37:36.131Z,1006.93
2017-08-24T02:38:25.069Z,1006.91
2017-08-24T02:39:13.139Z,1006.93
2017-08-24T02:40:01.051Z,1006.93
2017-08-24T02:40:49.358Z,1006.92
2017-08-24T02:41:48.928Z,1006.88
2017-08-24T02:42:44.029Z,1006.96
2017-08-24T02:43:44.405Z,1006.93
2017-08-24T02:44:33.034Z,1006.91
2017-08-24T02:45:22.512Z,1006.92
2017-08-24T02:46:17.163Z,1006.94
2017-08-24T02:47:11.530Z,1006.96
2017-08-24T02:47:59.553Z,1006.95
2017-08-24T02:48:48.590Z,1006.95
2017-08-24T02:49:43.654Z,1006.95
2017-08-24T02:50:37.873Z,1006.96
2017-08-24T02:51:37.878Z,1006.99
2017-08-24T02:52:38.817Z,1006.97
2017-08-24T02:53:32.803Z,1006.93
2017-08-24T02:54:32.790Z,1006.97
2017-08-24T02:55:27.912Z,1006.97
2017-08-24T02:56:22.970Z,1006.99
2017-08-24T02:57:24.014Z,1006.98
2017-08-24T02:58:19.053Z,1006.98
2017-08-24T02:59:08.049Z,1007.00
2017-08-24T02:59:56.224Z,1006.96
2017-08-24T03:00:50.178Z,1007.01
2017-08-24T03:01:45.221Z,1007.00
2017-08-24T03:02:39.299Z,1007.05
2017-08-24T03:03:33.304Z,1006.99
2017-08-24T03:04:28.400Z,1006.96
2017-08-24T03:05:28.380Z,1006.99
2017-08-24T03:06:22.440Z,1006.95
2017-08-24T03:07:22.501Z,1006.93
2017-08-24T03:08:16.433Z,1006.97
2017-08-24T03:09:10.613Z,1006.99
2017-08-24T03:10:04.600Z,1007.00
2017-08-24T03:10:58.622Z,1007.02
2017-08-24T03:11:58.699Z,1007.06
2017-08-24T03:12:53.710Z,1007.05
2017-08-24T03:13:41.790Z,1007.08
2017-08-24T03:14:35.798Z,1007.01
2017-08-24T03:15:29.836Z,1007.02
2017-08-24T03:16:23.920Z,1007.04
2017-08-24T03:17:11.874Z,1007.02
2017-08-24T03:18:05.925Z,1007.05
2017-08-24T03:19:00.930Z,1007.02
2017-08-24T03:20:01.074Z,1007.05
2017-08-24T03:20:55.076Z,1007.02
2017-08-24T03:21:55.185Z,1007.02
2017-08-24T03:22:43.135Z,1006.99
2017-08-24T03:23:32.235Z,1006.98
2017-08-24T03:24:21.368Z,1007.04
2017-08-24T03:25:10.255Z,1007.07
2017-08-24T03:26:04.399Z,1006.97
2017-08-24T03:26:53.433Z,1007.06
2017-08-24T03:27:47.443Z,1007.10
2017-08-24T03:28:36.550Z,1007.07
2017-08-24T03:29:25.600Z,1007.11
2017-08-24T03:30:20.533Z,1007.12
2017-08-24T03:31:14.828Z,1007.09
2017-08-24T03:32:15.706Z,1007.11
2017-08-24T03:33:10.616Z,1007.14
2017-08-24T03:34:10.753Z,1007.12
2017-08-24T03:35:04.861Z,1007.19
2017-08-24T03:35:53.810Z,1007.16
2017-08-24T03:36:41.896Z,1007.15
2017-08-24T03:37:29.861Z,1007.16
2017-08-24T03:38:24.063Z,1007.21
2017-08-24T03:39:24.078Z,1007.19
2017-08-24T03:40:12.075Z,1007.24
2017-08-24T03:41:00.207Z,1007.27
2017-08-24T03:41:48.157Z,1007.30
2017-08-24T03:42:43.225Z,1007.34
2017-08-24T03:43:32.375Z,1007.27
2017-08-24T03:44:21.325Z,1007.32
2017-08-24T03:45:10.464Z,1007.33
2017-08-24T03:46:04.371Z,1007.31
2017-08-24T03:46:52.377Z,1007.33
2017-08-24T03:47:53.437Z,1007.34
2017-08-24T03:48:42.482Z,1007.31
2017-08-24T03:49:36.535Z,1007.30
2017-08-24T03:50:31.617Z,1007.34
2017-08-24T03:51:31.520Z,1007.38
2017-08-24T03:52:31.687Z,1007.38
2017-08-24T03:53:25.634Z,1007.39
2017-08-24T03:54:25.336Z,1007.34
2017-08-24T03:55:13.387Z,1007.40
2017-08-24T03:56:07.972Z,1007.39
2017-08-24T03:57:02.734Z,1007.38
2017-08-24T03:57:51.784Z,1007.38
2017-08-24T03:58:40.936Z,1007.42
2017-08-24T03:59:34.835Z,1007.41
2017-08-24T04:00:29.992Z,1007.37
2017-08-24T04:01:24.040Z,1007.38
2017-08-24T04:02:24.028Z,1007.35
2017-08-24T04:03:13.043Z,1007.38
2017-08-24T04:04:02.060Z,1007.45
2017-08-24T04:04:51.234Z,1007.42
2017-08-24T04:05:39.225Z,1007.44
2017-08-24T04:06:27.893Z,1007.40
2017-08-24T04:07:17.171Z,1007.42
2017-08-24T04:08:11.078Z,1007.44
2017-08-24T04:09:00.030Z,1007.45
2017-08-24T04:09:49.031Z,1007.49
2017-08-24T04:10:43.136Z,1007.47
2017-08-24T04:11:43.575Z,1007.45
2017-08-24T04:12:44.206Z,1007.48
2017-08-24T04:13:38.607Z,1007.52
2017-08-24T04:14:32.326Z,1007.53
2017-08-24T04:15:21.299Z,1007.52
2017-08-24T04:16:15.262Z,1007.53
2017-08-24T04:17:09.510Z,1007.55
2017-08-24T04:17:58.438Z,1007.58
2017-08-24T04:18:46.478Z,1007.50
2017-08-24T04:19:47.598Z,1007.58
2017-08-24T04:20:36.893Z,1007.57
2017-08-24T04:21:30.577Z,1007.58
2017-08-24T04:22:24.986Z,1007.57
2017-08-24T04:23:19.942Z,1007.55
2017-08-24T04:24:20.168Z,1007.54
2017-08-24T04:25:09.079Z,1007.58
2017-08-24T04:26:03.225Z,1007.60
2017-08-24T04:26:51.287Z,1007.57
2017-08-24T04:27:45.331Z,1007.55
2017-08-24T04:28:45.340Z,1007.55
2017-08-24T04:29:39.319Z,1007.58
2017-08-24T04:30:27.453Z,1007.58
2017-08-24T04:31:21.304Z,1007.61
2017-08-24T04:32:15.161Z,1007.62
2017-08-24T04:33:04.166Z,1007.65
2017-08-24T04:33:53.547Z,1007.61
2017-08-24T04:34:47.251Z,1007.61
2017-08-24T04:35:36.566Z,1007.62
2017-08-24T04:36:31.678Z,1007.61
2017-08-24T04:37:20.717Z,1007.63
2017-08-24T04:38:14.489Z,1007.65
2017-08-24T04:39:08.466Z,1007.66
2017-08-24T04:40:03.610Z,1007.70
2017-08-24T04:40:51.972Z,1007.70
2017-08-24T04:41:40.622Z,1007.74
2017-08-24T04:42:34.647Z,1007.73
2017-08-24T04:43:29.832Z,1007.77
2017-08-24T04:44:17.909Z,1007.75
2017-08-24T04:45:11.957Z,1007.72
2017-08-24T04:46:05.936Z,1007.80
2017-08-24T04:46:59.779Z,1007.77
2017-08-24T04:47:53.836Z,1007.80
2017-08-24T04:48:43.006Z,1007.83
2017-08-24T04:49:32.179Z,1007.78
2017-08-24T04:50:26.496Z,1007.78
2017-08-24T04:51:15.021Z,1007.85
2017-08-24T04:52:10.130Z,1007.86
2017-08-24T04:53:04.205Z,1007.89
2017-08-24T04:53:53.363Z,1007.93
2017-08-24T04:54:48.231Z,1007.95
2017-08-24T04:55:48.263Z,1007.90
2017-08-24T04:56:42.519Z,1007.90
2017-08-24T04:57:42.394Z,1007.93
2017-08-24T04:58:36.436Z,1007.94
2017-08-24T04:59:36.482Z,1007.94
2017-08-24T05:00:31.853Z,1007.97
2017-08-24T05:01:19.654Z,1007.94
2017-08-24T05:02:13.586Z,1007.96
2017-08-24T05:03:07.731Z,1007.99
2017-08-24T05:04:02.680Z,1007.95
2017-08-24T05:05:03.024Z,1007.96
2017-08-24T05:05:56.898Z,1007.94
2017-08-24T05:06:45.814Z,1007.93
2017-08-24T05:07:45.798Z,1007.95
2017-08-24T05:08:39.817Z,1007.97
2017-08-24T05:09:40.912Z,1007.93
2017-08-24T05:10:30.403Z,1007.89
2017-08-24T05:11:25.291Z,1007.97
2017-08-24T05:12:19.022Z,1007.95
2017-08-24T05:13:07.064Z,1007.99
2017-08-24T05:14:02.509Z,1008.03
2017-08-24T05:15:02.132Z,1008.02
2017-08-24T05:15:57.840Z,1008.07
2017-08-24T05:16:58.327Z,1008.08
2017-08-24T05:17:46.667Z,1008.09
2017-08-24T05:18:35.428Z,1008.10
2017-08-24T05:19:30.451Z,1008.11
2017-08-24T05:20:18.421Z,1008.11
2017-08-24T05:21:18.520Z,1008.09
2017-08-24T05:22:12.856Z,1008.11
2017-08-24T05:23:00.570Z,1008.11
2017-08-24T05:23:54.602Z,1008.11
2017-08-24T05:24:48.880Z,1008.12
2017-08-24T05:25:43.633Z,1008.12
2017-08-24T05:26:38.696Z,1008.11
2017-08-24T05:27:33.728Z,1008.14
2017-08-24T05:28:27.737Z,1008.14
2017-08-24T05:29:21.918Z,1008.14
2017-08-24T05:30:15.972Z,1008.15
2017-08-24T05:31:10.944Z,1008.19
2017-08-24T05:32:00.145Z,1008.20
2017-08-24T05:32:54.979Z,1008.22
2017-08-24T05:33:44.137Z,1008.22
2017-08-24T05:34:33.167Z,1008.26
2017-08-24T05:35:27.688Z,1008.22
2017-08-24T05:36:27.124Z,1008.19
2017-08-24T05:37:27.286Z,1008.24
2017-08-24T05:38:27.603Z,1008.23
2017-08-24T05:39:21.443Z,1008.25
2017-08-24T05:40:09.405Z,1008.23
2017-08-24T05:40:58.451Z,1008.26
2017-08-24T05:41:52.436Z,1008.23
2017-08-24T05:42:46.569Z,1008.23
2017-08-24T05:43:40.841Z,1008.22
2017-08-24T05:44:40.584Z,1008.30
2017-08-24T05:45:30.302Z,1008.30
2017-08-24T05:46:17.733Z,1008.28
2017-08-24T05:47:11.696Z,1008.31
2017-08-24T05:48:00.815Z,1008.34
2017-08-24T05:48:49.758Z,1008.36
2017-08-24T05:49:43.879Z,1008.34
2017-08-24T05:50:32.365Z,1008.36
2017-08-24T05:51:20.326Z,1008.40
2017-08-24T05:52:14.989Z,1008.42
2017-08-24T05:53:03.108Z,1008.38
2017-08-24T05:53:57.437Z,1008.46
2017-08-24T05:54:51.535Z,1008.49
2017-08-24T05:55:46.552Z,1008.49
2017-08-24T05:56:35.296Z,1008.48
2017-08-24T05:57:23.284Z,1008.47
2017-08-24T05:58:12.775Z,1008.47
2017-08-24T05:59:01.465Z,1008.51
2017-08-24T05:59:49.468Z,1008.53
2017-08-24T06:00:38.466Z,1008.58
2017-08-24T06:01:27.464Z,1008.58
2017-08-24T06:02:16.906Z,1008.59
2017-08-24T06:03:10.966Z,1008.61
2017-08-24T06:04:04.718Z,1008.62
2017-08-24T06:04:53.791Z,1008.59
2017-08-24T06:05:42.785Z,1008.62
2017-08-24T06:06:36.751Z,1008.60
2017-08-24T06:07:38.307Z,1008.58
2017-08-24T06:08:31.808Z,1008.57
2017-08-24T06:09:25.929Z,1008.60
2017-08-24T06:10:20.996Z,1008.58
2017-08-24T06:11:10.369Z,1008.63
2017-08-24T06:12:04.377Z,1008.66
2017-08-24T06:12:53.258Z,1008.70
2017-08-24T06:13:47.164Z,1008.62
2017-08-24T06:14:36.293Z,1008.69
2017-08-24T06:15:25.388Z,1008.68
2017-08-24T06:16:20.657Z,1008.70
2017-08-24T06:17:15.579Z,1008.71
2017-08-24T06:18:04.761Z,1008.68
2017-08-24T06:18:59.683Z,1008.68
2017-08-24T06:19:54.808Z,1008.73
2017-08-24T06:20:48.915Z,1008.73
2017-08-24T06:21:37.905Z,1008.68
2017-08-24T06:22:33.015Z,1008.68
2017-08-24T06:23:27.027Z,1008.69
2017-08-24T06:24:22.113Z,1008.71
2017-08-24T06:25:22.060Z,1008.73
2017-08-24T06:26:11.209Z,1008.74
2017-08-24T06:27:06.045Z,1008.75
2017-08-24T06:28:06.086Z,1008.82
2017-08-24T06:28:55.260Z,1008.74
2017-08-24T06:29:49.290Z,1008.78
2017-08-24T06:30:44.005Z,1008.82
2017-08-24T06:31:39.417Z,1008.85
2017-08-24T06:32:33.130Z,1008.80
2017-08-24T06:33:22.029Z,1008.82
2017-08-24T06:34:16.570Z,1008.78
2017-08-24T06:35:11.331Z,1008.78
2017-08-24T06:36:00.656Z,1008.78
2017-08-24T06:36:49.861Z,1008.75
2017-08-24T06:37:49.749Z,1008.80
2017-08-24T06:38:43.844Z,1008.81
2017-08-24T06:39:32.865Z,1008.78
2017-08-24T06:40:27.958Z,1008.81
2017-08-24T06:41:16.909Z,1008.78
2017-08-24T06:42:05.886Z,1008.80
2017-08-24T06:42:59.985Z,1008.83
2017-08-24T06:43:54.028Z,1008.76
2017-08-24T06:44:48.043Z,1008.80
2017-08-24T06:45:42.099Z,1008.76
2017-08-24T06:46:31.163Z,1008.71
2017-08-24T06:47:19.172Z,1008.74
2017-08-24T06:48:13.226Z,1008.73
2017-08-24T06:49:07.273Z,1008.74
2017-08-24T06:50:02.301Z,1008.74
2017-08-24T06:51:02.312Z,1008.71
2017-08-24T06:51:56.429Z,1008.64
2017-08-24T06:52:56.622Z,1008.69
2017-08-24T06:53:45.480Z,1008.65
2017-08-24T06:54:39.572Z,1008.68
2017-08-24T06:55:40.650Z,1008.70
2017-08-24T06:56:28.686Z,1008.71
2017-08-24T06:57:22.813Z,1008.75
2017-08-24T06:58:16.703Z,1008.76
2017-08-24T06:59:10.750Z,1008.73
2017-08-24T07:00:05.819Z,1008.79
2017-08-24T07:00:54.814Z,1008.78
2017-08-24T07:01:48.881Z,1008.76
2017-08-24T07:02:44.034Z,1008.82
2017-08-24T07:03:38.025Z,1008.79
2017-08-24T07:04:33.013Z,1008.85
2017-08-24T07:05:22.089Z,1008.90
2017-08-24T07:06:22.123Z,1008.91
2017-08-24T07:07:16.083Z,1008.93
2017-08-24T07:08:10.153Z,1008.95
2017-08-24T07:08:59.338Z,1008.93
2017-08-24T07:09:53.365Z,1008.96
2017-08-24T07:10:53.340Z,1008.98
2017-08-24T07:11:41.347Z,1008.97
2017-08-24T07:12:41.360Z,1009.01
2017-08-24T07:13:29.512Z,1009.02
2017-08-24T07:14:24.580Z,1009.03
2017-08-24T07:15:18.586Z,1009.02
2017-08-24T07:16:06.545Z,1009.11
2017-08-24T07:17:00.681Z,1009.11
2017-08-24T07:17:49.714Z,1009.15
2017-08-24T07:18:38.719Z,1009.21
2017-08-24T07:19:33.821Z,1009.15
2017-08-24T07:20:27.922Z,1009.17
2017-08-24T07:21:21.918Z,1009.15
2017-08-24T07:22:15.975Z,1009.14
2017-08-24T07:23:17.058Z,1009.16
2017-08-24T07:24:18.060Z,1009.23
2017-08-24T07:25:12.477Z,1009.17
2017-08-24T07:26:06.143Z,1009.21
2017-08-24T07:27:01.233Z,1009.26
2017-08-24T07:28:01.189Z,1009.27
2017-08-24T07:28:56.307Z,1009.36
2017-08-24T07:29:56.302Z,1009.41
2017-08-24T07:30:51.393Z,1009.38
2017-08-24T07:31:46.285Z,1009.42
2017-08-24T07:32:40.344Z,1009.43
2017-08-24T07:33:40.416Z,1009.40
2017-08-24T07:34:34.512Z,1009.44
2017-08-24T07:35:28.587Z,1009.42
2017-08-24T07:36:17.664Z,1009.39
2017-08-24T07:37:12.715Z,1009.45
2017-08-24T07:38:06.657Z,1009.41
2017-08-24T07:39:01.763Z,1009.32
2017-08-24T07:39:50.786Z,1009.31
2017-08-24T07:40:45.837Z,1009.27
2017-08-24T07:41:33.914Z,1009.27
2017-08-24T07:42:33.978Z,1009.37
2017-08-24T07:43:28.920Z,1009.33
2017-08-24T07:44:18.049Z,1009.34
2017-08-24T07:45:12.108Z,1009.28
2017-08-24T07:46:07.094Z,1009.24
2017-08-24T07:46:55.180Z,1009.36
2017-08-24T07:47:50.130Z,1009.38
2017-08-24T07:48:51.292Z,1009.36
2017-08-24T07:49:40.277Z,1009.43
2017-08-24T07:50:35.315Z,1009.46
2017-08-24T07:51:36.368Z,1009.33
2017-08-24T07:52:36.499Z,1009.33
2017-08-24T07:53:31.531Z,1009.39
2017-08-24T07:54:31.515Z,1009.48
2017-08-24T07:55:25.532Z,1009.54
2017-08-24T07:56:14.657Z,1009.53
2017-08-24T07:57:14.642Z,1009.46
2017-08-24T07:58:08.656Z,1009.48
2017-08-24T07:58:56.748Z,1009.52
2017-08-24T07:59:50.736Z,1009.56
2017-08-24T08:00:39.872Z,1009.60
2017-08-24T08:01:33.830Z,1009.49
2017-08-24T08:02:21.919Z,1009.45
2017-08-24T08:03:15.921Z,1009.52
2017-08-24T08:04:10.022Z,1009.53
2017-08-24T08:05:10.144Z,1009.50
2017-08-24T08:05:59.193Z,1009.53
2017-08-24T08:06:53.251Z,1009.54
2017-08-24T08:07:48.321Z,1009.56
2017-08-24T08:08:36.269Z,1009.54
2017-08-24T08:09:36.275Z,1009.47
2017-08-24T08:10:25.377Z,1009.51
2017-08-24T08:11:25.389Z,1009.54
2017-08-24T08:12:20.501Z,1009.44
2017-08-24T08:13:15.577Z,1009.46
2017-08-24T08:14:10.564Z,1009.50
2017-08-24T08:14:59.635Z,1009.54
2017-08-24T08:15:53.693Z,1009.55
2017-08-24T08:16:47.746Z,1009.56
2017-08-24T08:17:36.716Z,1009.60
2017-08-24T08:18:31.802Z,1009.56
2017-08-24T08:19:19.828Z,1009.54
2017-08-24T08:20:08.904Z,1009.63
2017-08-24T08:21:03.937Z,1009.65
2017-08-24T08:22:03.993Z,1009.60
2017-08-24T08:23:04.072Z,1009.76
2017-08-24T08:24:04.084Z,1009.72
2017-08-24T08:24:53.126Z,1009.77
2017-08-24T08:25:42.209Z,1009.69
2017-08-24T08:26:37.143Z,1009.67
2017-08-24T08:27:38.247Z,1009.75
2017-08-24T08:28:38.277Z,1009.69
2017-08-24T08:29:33.294Z,1009.80
2017-08-24T08:30:28.763Z,1009.83
2017-08-24T08:31:17.485Z,1009.75
2017-08-24T08:32:18.463Z,1009.71
2017-08-24T08:33:12.602Z,1009.70
2017-08-24T08:34:00.678Z,1009.86
2017-08-24T08:34:55.683Z,1009.86
2017-08-24T08:35:56.727Z,1009.81
2017-08-24T08:36:50.780Z,1009.82
2017-08-24T08:37:38.810Z,1009.84
2017-08-24T08:38:32.875Z,1009.86
2017-08-24T08:39:26.940Z,1009.89
2017-08-24T08:40:21.903Z,1009.85
2017-08-24T08:41:22.028Z,1009.78
2017-08-24T08:42:17.079Z,1009.81
2017-08-24T08:44:04.515Z,1009.74
2017-08-24T08:45:04.462Z,1009.72
2017-08-24T08:45:58.517Z,1009.70
2017-08-24T08:46:47.596Z,1009.84
2017-08-24T08:47:47.736Z,1009.81
2017-08-24T08:48:36.661Z,1009.81
2017-08-24T08:49:30.772Z,1009.83
2017-08-24T08:50:25.865Z,1009.77
2017-08-24T08:51:19.888Z,1009.85
2017-08-24T08:52:13.890Z,1009.88
2017-08-24T08:53:09.004Z,1009.78
2017-08-24T08:53:58.060Z,1009.84
2017-08-24T08:54:46.127Z,1009.77
2017-08-24T08:55:35.150Z,1009.84
2017-08-24T08:56:29.171Z,1009.96
2017-08-24T08:57:18.250Z,1009.79
2017-08-24T08:58:12.350Z,1009.98
2017-08-24T08:59:00.386Z,1009.88
2017-08-24T09:00:00.441Z,1009.90
2017-08-24T09:00:49.370Z,1009.86
2017-08-24T09:01:50.775Z,1009.89
2017-08-24T09:02:38.626Z,1009.93
2017-08-24T09:03:32.659Z,1010.05
2017-08-24T09:04:33.657Z,1010.05
2017-08-24T09:05:27.673Z,1009.98
2017-08-24T09:06:15.818Z,1009.93
2017-08-24T09:07:15.829Z,1009.86
2017-08-24T09:08:09.821Z,1009.93
2017-08-24T09:09:03.890Z,1009.86
2017-08-24T09:09:59.049Z,1009.82
2017-08-24T09:10:53.117Z,1009.75
2017-08-24T09:11:53.068Z,1009.95
2017-08-24T09:12:47.177Z,1009.73
2017-08-24T09:13:42.293Z,1009.75
2017-08-24T09:14:36.200Z,1009.79
2017-08-24T09:15:24.188Z,1009.82
2017-08-24T09:16:18.320Z,1009.76
2017-08-24T09:17:12.361Z,1009.77
2017-08-24T09:18:12.489Z,1009.85
2017-08-24T09:19:07.652Z,1009.98
2017-08-24T09:20:02.552Z,1009.94
2017-08-24T09:20:51.621Z,1010.04
2017-08-24T09:21:45.750Z,1010.02
2017-08-24T09:22:45.758Z,1009.92
2017-08-24T09:23:40.849Z,1009.84
2017-08-24T09:24:28.956Z,1009.76
2017-08-24T09:25:28.999Z,1009.69
2017-08-24T09:26:23.002Z,1009.83
2017-08-24T09:27:16.990Z,1009.93
2017-08-24T09:28:11.104Z,1009.86
2017-08-24T09:29:06.148Z,1009.82
2017-08-24T09:30:00.214Z,1009.86
2017-08-24T09:30:49.292Z,1009.78
2017-08-24T09:31:38.331Z,1009.84
2017-08-24T09:32:33.399Z,1009.93
2017-08-24T09:33:21.433Z,1009.95
2017-08-24T09:34:15.422Z,1009.87
2017-08-24T09:35:09.618Z,1009.94
2017-08-24T09:36:03.645Z,1009.96
2017-08-24T09:36:57.620Z,1009.94
2017-08-24T09:37:51.826Z,1009.93
2017-08-24T09:38:40.862Z,1010.13
2017-08-24T09:39:28.837Z,1010.17
2017-08-24T09:40:23.957Z,1010.07
2017-08-24T09:41:12.997Z,1010.04
2017-08-24T09:42:01.075Z,1010.05
2017-08-24T09:42:50.115Z,1010.06
2017-08-24T09:43:44.244Z,1010.09
2017-08-24T09:44:38.221Z,1010.15
2017-08-24T09:45:33.366Z,1010.12
2017-08-24T09:46:22.304Z,1010.06
2017-08-24T09:47:16.429Z,1010.12
2017-08-24T09:48:10.441Z,1010.10
2017-08-24T09:48:59.538Z,1010.24
2017-08-24T09:49:53.539Z,1010.27
2017-08-24T09:50:41.757Z,1010.28
2017-08-24T09:51:41.698Z,1010.33
2017-08-24T09:52:35.802Z,1010.33
2017-08-24T09:53:29.791Z,1010.34
2017-08-24T09:54:23.947Z,1010.37
2017-08-24T09:55:17.892Z,1010.45
2017-08-24T09:56:18.010Z,1010.39
2017-08-24T09:57:13.047Z,1010.35
2017-08-24T09:58:08.205Z,1010.33
2017-08-24T09:59:03.158Z,1010.29
2017-08-24T09:59:57.253Z,1010.42
2017-08-24T10:00:46.308Z,1010.28
2017-08-24T10:01:40.341Z,1010.29
2017-08-24T10:02:35.335Z,1010.27
2017-08-24T10:03:29.395Z,1010.18
2017-08-24T10:04:23.494Z,1010.31
2017-08-24T10:05:23.581Z,1010.34
2017-08-24T10:06:17.608Z,1010.38
2017-08-24T10:07:11.927Z,1010.32
2017-08-24T10:08:05.673Z,1010.31
2017-08-24T10:09:00.721Z,1010.27
2017-08-24T10:09:55.783Z,1010.22
2017-08-24T10:10:49.866Z,1010.16
2017-08-24T10:11:43.869Z,1010.13
2017-08-24T10:12:45.083Z,1010.03
2017-08-24T10:13:40.040Z,1010.13
2017-08-24T10:14:34.094Z,1010.23
2017-08-24T10:15:23.227Z,1010.27
2017-08-24T10:16:18.252Z,1010.27
2017-08-24T10:17:07.325Z,1010.23
2017-08-24T10:18:02.390Z,1010.06
2017-08-24T10:18:56.437Z,1010.04
2017-08-24T10:19:51.469Z,1010.02
2017-08-24T10:20:40.663Z,1010.17
2017-08-24T10:21:35.532Z,1010.27
2017-08-24T10:22:23.692Z,1010.27
2017-08-24T10:23:11.777Z,1010.21
2017-08-24T10:24:06.822Z,1010.26
2017-08-24T10:25:00.846Z,1010.32
2017-08-24T10:25:48.895Z,1010.45
2017-08-24T10:26:42.973Z,1010.48
2017-08-24T10:27:32.042Z,1010.28
2017-08-24T10:28:32.503Z,1010.12
2017-08-24T10:29:27.857Z,1010.17
2017-08-24T10:30:22.563Z,1010.18
2017-08-24T10:31:22.560Z,1010.18
2017-08-24T10:32:16.272Z,1010.19
2017-08-24T10:33:11.344Z,1010.22
2017-08-24T10:34:11.302Z,1010.26
2017-08-24T10:35:00.433Z,1010.29
2017-08-24T10:35:54.485Z,1010.27
2017-08-24T10:36:54.487Z,1010.30
2017-08-24T10:37:49.661Z,1010.24
2017-08-24T10:38:49.637Z,1010.35
2017-08-24T10:39:49.769Z,1010.46
2017-08-24T10:40:43.776Z,1010.50
2017-08-24T10:41:32.897Z,1010.55
2017-08-24T10:42:26.803Z,1010.58
2017-08-24T10:43:20.888Z,1010.47
2017-08-24T10:44:15.070Z,1010.43
2017-08-24T10:45:10.058Z,1010.44
2017-08-24T10:45:58.121Z,1010.40
2017-08-24T10:46:58.203Z,1010.54
2017-08-24T10:47:46.168Z,1010.66
2017-08-24T10:48:46.297Z,1010.67
2017-08-24T10:49:35.325Z,1010.67
2017-08-24T10:50:24.385Z,1010.77
2017-08-24T10:51:19.378Z,1010.60